createdAt,value
2022-11-03T00:01:16.099Z,3.83
2022-11-03T00:03:43.810Z,2.60
2022-11-03T00:06:11.769Z,2.92
2022-11-03T00:08:41.832Z,2.83
2022-11-03T00:11:09.918Z,5.05
2022-11-03T00:13:39.300Z,3.25
2022-11-03T00:16:07.669Z,2.95
2022-11-03T00:18:35.647Z,3.25
2022-11-03T00:21:07.391Z,3.88
2022-11-03T00:23:37.020Z,4.28
2022-11-03T00:26:25.148Z,3.88
2022-11-03T00:28:54.875Z,3.30
2022-11-03T00:31:27.779Z,2.83
2022-11-03T00:33:56.010Z,2.50
2022-11-03T00:36:28.690Z,2.63
2022-11-03T00:38:56.796Z,3.28
2022-11-03T00:41:25.455Z,3.25
2022-11-03T00:43:53.302Z,3.53
2022-11-03T00:46:22.211Z,3.33
2022-11-03T00:48:49.867Z,2.63
2022-11-03T00:51:30.128Z,2.50
2022-11-03T00:53:59.664Z,2.78
2022-11-03T00:56:29.858Z,4.15
2022-11-03T00:58:59.069Z,3.42
2022-11-03T01:01:39.224Z,3.00
2022-11-03T01:04:29.364Z,3.35
2022-11-03T01:06:57.353Z,3.03
2022-11-03T01:09:29.541Z,3.10
2022-11-03T01:11:57.391Z,3.55
2022-11-03T01:14:46.228Z,2.70
2022-11-03T01:17:20.262Z,3.53
2022-11-03T01:19:48.269Z,3.10
2022-11-03T01:22:16.608Z,3.30
2022-11-03T01:24:44.859Z,3.58
2022-11-03T01:27:14.903Z,3.78
2022-11-03T01:29:42.881Z,3.28
2022-11-03T01:32:11.092Z,2.90
2022-11-03T01:34:39.178Z,3.03
2022-11-03T01:37:07.223Z,2.75
2022-11-03T01:39:35.063Z,3.10
2022-11-03T01:42:02.697Z,3.08
2022-11-03T01:44:33.368Z,2.92
2022-11-03T01:47:14.815Z,3.77
2022-11-03T01:49:48.776Z,3.67
2022-11-03T01:52:29.971Z,5.30
2022-11-03T01:55:23.435Z,3.53
2022-11-03T01:57:55.900Z,5.22
2022-11-03T02:00:23.843Z,3.83
2022-11-03T02:02:51.808Z,4.93
2022-11-03T02:05:21.307Z,3.10
2022-11-03T02:07:55.689Z,3.20
2022-11-03T02:10:24.604Z,3.67
2022-11-03T02:12:52.469Z,4.15
2022-11-03T02:15:22.086Z,3.75
2022-11-03T02:17:51.367Z,3.35
2022-11-03T02:20:28.385Z,2.22
2022-11-03T02:23:08.472Z,3.30
2022-11-03T02:25:41.802Z,3.38
2022-11-03T02:28:10.357Z,4.22
2022-11-03T02:31:00.311Z,3.60
2022-11-03T02:33:28.266Z,3.03
2022-11-03T02:35:59.236Z,2.92
2022-11-03T02:38:29.924Z,3.35
2022-11-03T02:41:00.847Z,4.40
2022-11-03T02:43:29.497Z,3.95
2022-11-03T02:45:57.388Z,3.65
2022-11-03T02:48:25.346Z,4.55
2022-11-03T02:51:18.436Z,3.15
2022-11-03T02:54:15.459Z,3.78
2022-11-03T02:56:57.703Z,4.68
2022-11-03T02:59:27.214Z,3.80
2022-11-03T03:02:09.648Z,3.17
2022-11-03T03:04:40.876Z,3.70
2022-11-03T03:07:16.855Z,3.58
2022-11-03T03:09:49.740Z,3.78
2022-11-03T03:12:19.275Z,4.00
2022-11-03T03:14:47.796Z,3.90
2022-11-03T03:17:25.619Z,3.83
2022-11-03T03:20:04.216Z,4.25
2022-11-03T03:22:37.845Z,4.47
2022-11-03T03:25:05.801Z,5.00
2022-11-03T03:27:35.168Z,3.78
2022-11-03T03:30:04.874Z,3.35
2022-11-03T03:32:39.624Z,3.00
2022-11-03T03:35:11.193Z,4.13
2022-11-03T03:37:41.568Z,4.35
2022-11-03T03:40:14.018Z,3.40
2022-11-03T03:42:44.857Z,3.22
2022-11-03T03:45:13.231Z,3.80
2022-11-03T03:47:41.281Z,4.40
2022-11-03T03:50:09.221Z,3.95
2022-11-03T03:52:37.970Z,4.05
2022-11-03T03:55:12.549Z,3.38
2022-11-03T03:57:40.535Z,4.40
2022-11-03T04:00:09.132Z,3.80
2022-11-03T04:02:39.953Z,4.10
2022-11-03T04:05:07.596Z,3.83
2022-11-03T04:07:48.015Z,3.28
2022-11-03T04:10:21.399Z,3.95
2022-11-03T04:13:09.317Z,3.63
2022-11-03T04:15:49.291Z,3.90
2022-11-03T04:18:36.132Z,4.28
2022-11-03T04:21:22.912Z,3.72
2022-11-03T04:23:50.514Z,4.07
2022-11-03T04:26:19.551Z,3.92
2022-11-03T04:28:47.396Z,3.60
2022-11-03T04:31:17.336Z,4.15
2022-11-03T04:33:45.408Z,3.75
2022-11-03T04:36:23.560Z,3.83
2022-11-03T04:38:52.004Z,3.67
2022-11-03T04:41:25.424Z,4.13
2022-11-03T04:43:53.640Z,3.78
2022-11-03T04:46:26.138Z,4.10
2022-11-03T04:48:59.332Z,4.32
2022-11-03T04:51:31.133Z,4.68
2022-11-03T04:54:06.554Z,3.95
2022-11-03T04:56:34.204Z,5.05
2022-11-03T04:59:01.716Z,5.80
2022-11-03T05:01:29.995Z,3.78
2022-11-03T05:03:57.739Z,4.60
2022-11-03T05:06:29.747Z,4.35
2022-11-03T05:09:07.958Z,4.40
2022-11-03T05:11:38.966Z,4.72
2022-11-03T05:14:19.929Z,5.20
2022-11-03T05:16:48.833Z,3.85
2022-11-03T05:19:22.782Z,4.60
2022-11-03T05:21:52.285Z,4.07
2022-11-03T05:24:25.918Z,4.28
2022-11-03T05:26:56.036Z,3.85
2022-11-03T05:29:35.097Z,3.53
2022-11-03T05:32:02.800Z,4.63
2022-11-03T05:34:30.379Z,3.78
2022-11-03T05:37:04.561Z,4.45
2022-11-03T05:39:37.843Z,4.13
2022-11-03T05:42:36.437Z,4.93
2022-11-03T05:45:19.880Z,4.25
2022-11-03T05:47:48.815Z,4.47
2022-11-03T05:50:19.365Z,4.50
2022-11-03T05:52:48.857Z,5.80
2022-11-03T05:55:33.195Z,4.88
2022-11-03T05:58:05.825Z,5.20
2022-11-03T06:00:42.936Z,4.18
2022-11-03T06:03:39.905Z,4.88
2022-11-03T06:06:37.354Z,4.72
2022-11-03T06:09:14.007Z,4.47
2022-11-03T06:11:42.712Z,5.20
2022-11-03T06:14:24.030Z,4.57
2022-11-03T06:19:33.713Z,4.68
2022-11-03T06:22:27.686Z,4.60
2022-11-03T06:25:01.247Z,5.35
2022-11-03T06:27:31.672Z,4.50
2022-11-03T06:29:59.452Z,5.13
2022-11-03T06:32:28.231Z,5.70
2022-11-03T06:34:57.383Z,4.75
2022-11-03T06:37:33.273Z,5.20
2022-11-03T06:40:21.232Z,5.40
2022-11-03T06:42:49.009Z,5.40
2022-11-03T06:45:20.641Z,5.45
2022-11-03T06:47:48.976Z,4.63
2022-11-03T06:50:31.690Z,5.32
2022-11-03T06:53:03.869Z,6.25
2022-11-03T06:55:33.612Z,4.93
2022-11-03T06:58:37.603Z,5.75
2022-11-03T07:01:20.562Z,6.07
2022-11-03T07:03:50.171Z,6.15
2022-11-03T07:06:26.251Z,5.80
2022-11-03T07:08:55.270Z,5.28
2022-11-03T07:11:25.838Z,5.05
2022-11-03T07:13:57.734Z,5.13
2022-11-03T07:16:35.532Z,4.25
2022-11-03T07:19:11.376Z,4.38
2022-11-03T07:21:41.909Z,4.57
2022-11-03T07:24:25.704Z,4.47
2022-11-03T07:27:27.522Z,5.45
2022-11-03T07:29:59.740Z,5.65
2022-11-03T07:32:32.465Z,4.55
2022-11-03T07:35:23.452Z,5.47
2022-11-03T07:37:52.360Z,4.78
2022-11-03T07:40:24.191Z,4.97
2022-11-03T07:42:53.021Z,4.93
2022-11-03T07:45:39.955Z,4.82
2022-11-03T07:48:21.972Z,4.78
2022-11-03T07:50:51.913Z,4.60
2022-11-03T07:53:25.798Z,6.38
2022-11-03T07:55:56.332Z,4.15
2022-11-03T07:58:44.144Z,4.63
2022-11-03T08:01:31.689Z,4.82
2022-11-03T08:04:01.461Z,4.90
2022-11-03T08:06:29.393Z,5.25
2022-11-03T08:08:57.466Z,4.47
2022-11-03T08:11:28.064Z,5.30
2022-11-03T08:13:57.815Z,4.63
2022-11-03T08:16:25.775Z,4.38
2022-11-03T08:18:53.729Z,5.10
2022-11-03T08:21:21.644Z,5.47
2022-11-03T08:23:49.544Z,5.15
2022-11-03T08:26:17.527Z,6.97
2022-11-03T08:28:45.452Z,4.60
2022-11-03T08:31:13.424Z,5.65
2022-11-03T08:33:41.700Z,5.90
2022-11-03T08:36:09.929Z,5.38
2022-11-03T08:38:37.982Z,5.47
2022-11-03T08:41:05.716Z,6.47
2022-11-03T08:43:33.748Z,4.60
2022-11-03T08:46:09.747Z,5.40
2022-11-03T08:48:41.580Z,5.90
2022-11-03T08:51:10.437Z,6.85
2022-11-03T08:53:38.625Z,5.07
2022-11-03T08:56:10.474Z,4.72
2022-11-03T08:58:40.867Z,5.13
2022-11-03T09:01:10.088Z,6.68
2022-11-03T09:03:37.747Z,6.18
2022-11-03T09:06:05.819Z,4.80
2022-11-03T09:11:21.562Z,4.65
2022-11-03T09:13:49.424Z,5.38
2022-11-03T09:16:17.249Z,6.25
2022-11-03T09:18:45.599Z,4.38
2022-11-03T09:21:38.371Z,5.70
2022-11-03T09:24:06.481Z,6.38
2022-11-03T09:26:33.954Z,6.00
2022-11-03T09:29:01.560Z,8.05
2022-11-03T09:31:29.535Z,9.27
2022-11-03T09:33:57.369Z,8.82
2022-11-03T09:36:25.173Z,7.15
2022-11-03T09:38:53.056Z,8.15
2022-11-03T09:41:27.745Z,8.23
2022-11-03T09:44:03.510Z,5.75
2022-11-03T09:46:31.788Z,5.00
2022-11-03T09:48:59.809Z,5.13
2022-11-03T09:51:28.708Z,4.90
2022-11-03T09:53:59.107Z,4.47
2022-11-03T09:56:27.067Z,4.50
2022-11-03T09:58:55.092Z,4.85
2022-11-03T10:01:23.652Z,4.80
2022-11-03T10:03:51.710Z,6.03
2022-11-03T10:06:21.340Z,4.45
2022-11-03T10:08:49.808Z,3.92
2022-11-03T10:11:17.825Z,5.00
2022-11-03T10:13:47.711Z,4.35
2022-11-03T10:16:19.572Z,5.45
2022-11-03T10:18:47.705Z,4.20
2022-11-03T10:21:41.423Z,5.30
2022-11-03T10:24:14.654Z,3.42
2022-11-03T10:26:46.194Z,3.50
2022-11-03T10:29:27.335Z,4.10
2022-11-03T10:31:58.614Z,4.95
2022-11-03T10:34:28.114Z,4.20
2022-11-03T10:37:20.848Z,4.22
2022-11-03T10:39:56.715Z,4.00
2022-11-03T10:42:35.332Z,4.30
2022-11-03T10:45:17.516Z,4.78
2022-11-03T10:48:05.042Z,4.05
2022-11-03T10:50:33.147Z,4.25
2022-11-03T10:53:01.142Z,3.45
2022-11-03T10:55:28.746Z,3.20
2022-11-03T10:57:58.315Z,2.90
2022-11-03T11:00:26.074Z,2.63
2022-11-03T11:02:59.555Z,2.75
2022-11-03T11:05:27.676Z,1.80
2022-11-03T11:07:55.720Z,2.40
2022-11-03T11:10:28.931Z,2.35
2022-11-03T11:13:13.680Z,2.50
2022-11-03T11:15:46.143Z,2.47
2022-11-03T11:18:31.708Z,2.55
2022-11-03T11:21:01.128Z,2.40
2022-11-03T11:23:30.078Z,3.17
2022-11-03T11:26:09.765Z,3.30
2022-11-03T11:28:39.345Z,2.83
2022-11-03T11:31:32.681Z,2.60
2022-11-03T11:34:09.247Z,2.60
2022-11-03T11:36:41.706Z,3.72
2022-11-03T11:39:24.333Z,2.50
2022-11-03T11:42:14.749Z,2.85
2022-11-03T11:44:53.305Z,3.05
2022-11-03T11:47:40.911Z,2.97
2022-11-03T11:50:09.633Z,2.45
2022-11-03T11:52:46.082Z,2.30
2022-11-03T11:55:31.345Z,2.72
2022-11-03T11:58:01.765Z,2.50
2022-11-03T12:00:35.257Z,3.20
2022-11-03T12:03:05.477Z,2.28
2022-11-03T12:05:34.630Z,2.88
2022-11-03T12:08:02.210Z,3.03
2022-11-03T12:10:34.026Z,2.67
2022-11-03T12:13:01.824Z,3.03
2022-11-03T12:15:57.445Z,2.90
2022-11-03T12:18:50.275Z,2.80
2022-11-03T12:21:47.383Z,2.97
2022-11-03T12:24:45.758Z,3.13
2022-11-03T12:27:25.109Z,2.70
2022-11-03T12:30:01.173Z,2.78
2022-11-03T12:32:33.542Z,3.03
2022-11-03T12:35:04.059Z,2.88
2022-11-03T12:37:31.643Z,3.58
2022-11-03T12:39:59.771Z,3.30
2022-11-03T12:42:27.515Z,3.58
2022-11-03T12:44:56.049Z,2.85
2022-11-03T12:47:24.016Z,3.17
2022-11-03T12:49:51.499Z,3.30
2022-11-03T12:52:19.432Z,3.03
2022-11-03T12:54:47.053Z,2.53
2022-11-03T12:57:14.928Z,3.33
2022-11-03T12:59:42.498Z,3.35
2022-11-03T13:02:11.197Z,2.80
2022-11-03T13:04:39.002Z,2.78
2022-11-03T13:07:06.910Z,2.78
2022-11-03T13:09:35.953Z,3.15
2022-11-03T13:12:22.336Z,3.08
2022-11-03T13:14:49.851Z,3.97
2022-11-03T13:17:17.921Z,3.33
2022-11-03T13:19:45.884Z,2.70
2022-11-03T13:22:13.857Z,2.63
2022-11-03T13:24:41.945Z,3.40
2022-11-03T13:27:09.805Z,2.63
2022-11-03T13:29:37.761Z,3.13
2022-11-03T13:32:05.605Z,2.72
2022-11-03T13:34:33.604Z,2.90
2022-11-03T13:37:01.674Z,2.70
2022-11-03T13:39:29.530Z,2.55
2022-11-03T13:41:57.046Z,2.67
2022-11-03T13:44:24.735Z,2.78
2022-11-03T13:46:52.701Z,2.70
2022-11-03T13:49:59.299Z,2.13
2022-11-03T13:52:10.112Z,2.25
2022-11-03T14:00:15.772Z,2.78
2022-11-03T14:05:32.081Z,3.47
2022-11-03T14:07:59.878Z,2.60
2022-11-03T14:10:27.824Z,2.03
2022-11-03T14:12:58.108Z,2.65
2022-11-03T14:15:25.486Z,2.13
2022-11-03T14:17:56.108Z,2.28
2022-11-03T14:20:23.795Z,2.90
2022-11-03T14:22:51.746Z,2.97
2022-11-03T14:25:20.410Z,2.30
2022-11-03T14:27:50.863Z,2.55
2022-11-03T14:30:18.932Z,2.35
2022-11-03T14:32:59.593Z,2.10
2022-11-03T14:35:27.725Z,2.28
2022-11-03T14:37:55.542Z,2.42
2022-11-03T14:40:48.988Z,2.20
2022-11-03T14:43:16.947Z,2.33
2022-11-03T14:45:44.337Z,1.92
2022-11-03T14:48:12.269Z,1.90
2022-11-03T14:50:39.693Z,2.63
2022-11-03T14:53:07.561Z,2.20
2022-11-03T14:55:35.154Z,2.63
2022-11-03T14:58:02.745Z,1.85
2022-11-03T15:00:30.315Z,1.67
2022-11-03T15:02:57.861Z,1.85
2022-11-03T15:05:44.336Z,2.05
2022-11-03T15:08:15.398Z,2.90
2022-11-03T15:10:43.903Z,2.35
2022-11-03T15:13:11.834Z,1.98
2022-11-03T15:15:41.592Z,2.20
2022-11-03T15:18:11.217Z,2.13
2022-11-03T15:20:38.793Z,2.35
2022-11-03T15:25:55.962Z,1.80
2022-11-03T15:28:23.945Z,2.70
2022-11-03T15:30:51.764Z,2.45
2022-11-03T15:33:19.719Z,2.10
2022-11-03T15:35:47.616Z,2.88
2022-11-03T15:38:15.187Z,2.95
2022-11-03T15:40:42.927Z,2.10
2022-11-03T15:43:10.472Z,2.42
2022-11-03T15:45:38.394Z,2.47
2022-11-03T15:48:06.556Z,2.45
2022-11-03T15:50:34.623Z,2.20
2022-11-03T15:53:02.065Z,2.38
2022-11-03T15:55:29.592Z,2.58
2022-11-03T15:57:57.537Z,2.05
2022-11-03T16:00:24.994Z,3.28
2022-11-03T16:02:52.616Z,2.65
2022-11-03T16:05:24.927Z,3.35
2022-11-03T16:07:53.856Z,2.80
2022-11-03T16:10:21.682Z,3.15
2022-11-03T16:12:49.492Z,2.20
2022-11-03T16:15:17.148Z,3.05
2022-11-03T16:17:45.825Z,2.90
2022-11-03T16:20:13.798Z,2.78
2022-11-03T16:22:41.705Z,3.08
2022-11-03T16:25:12.827Z,4.30
2022-11-03T16:27:42.982Z,2.95
2022-11-03T16:30:11.665Z,4.63
2022-11-03T16:32:39.424Z,2.80
2022-11-03T16:35:07.462Z,3.80
2022-11-03T16:37:35.316Z,3.95
2022-11-03T16:40:03.197Z,3.80
2022-11-03T16:42:30.665Z,3.30
2022-11-03T16:44:58.198Z,5.30
2022-11-03T16:47:27.073Z,4.43
2022-11-03T16:49:54.579Z,5.20
2022-11-03T16:52:22.548Z,4.93
2022-11-03T16:54:50.323Z,5.57
2022-11-03T16:57:18.304Z,5.43
2022-11-03T16:59:46.217Z,5.32
2022-11-03T17:02:16.473Z,3.47
2022-11-03T17:04:44.688Z,5.28
2022-11-03T17:07:12.200Z,4.30
2022-11-03T17:09:39.963Z,5.15
2022-11-03T17:12:07.866Z,4.70
2022-11-03T17:14:36.300Z,5.28
2022-11-03T17:17:04.110Z,4.22
2022-11-03T17:19:31.925Z,4.68
2022-11-03T17:21:59.754Z,4.32
2022-11-03T17:24:27.530Z,4.75
2022-11-03T17:26:55.768Z,5.00
2022-11-03T17:29:28.941Z,4.47
2022-11-03T17:31:56.765Z,4.45
2022-11-03T17:34:25.636Z,3.75
2022-11-03T17:36:53.609Z,4.82
2022-11-03T17:42:21.667Z,5.60
2022-11-03T17:44:50.973Z,5.18
2022-11-03T17:47:19.495Z,5.30
2022-11-03T17:49:48.228Z,6.03
2022-11-03T17:52:25.049Z,5.45
2022-11-03T17:54:57.872Z,6.60
2022-11-03T17:57:26.450Z,6.25
2022-11-03T17:59:55.419Z,5.82
2022-11-03T18:02:27.967Z,5.45
2022-11-03T18:05:00.084Z,6.13
2022-11-03T18:07:29.113Z,5.10
2022-11-03T18:09:56.909Z,6.28
2022-11-03T18:13:07.224Z,7.38
2022-11-03T18:15:39.206Z,6.95
2022-11-03T18:18:13.340Z,8.25
2022-11-03T18:20:50.262Z,6.45
2022-11-03T18:23:22.308Z,6.95
2022-11-03T18:25:50.706Z,6.85
2022-11-03T18:28:19.442Z,5.90
2022-11-03T18:30:49.996Z,5.80
2022-11-03T18:33:20.885Z,6.38
2022-11-03T18:35:48.722Z,6.97
2022-11-03T18:38:17.058Z,6.18
2022-11-03T18:40:45.514Z,8.23
2022-11-03T18:43:19.621Z,9.50
2022-11-03T18:45:47.555Z,7.68
2022-11-03T18:48:21.741Z,7.15
2022-11-03T18:50:50.787Z,9.10
2022-11-03T18:53:21.278Z,7.45
2022-11-03T18:55:49.520Z,7.20
2022-11-03T18:58:22.823Z,7.47
2022-11-03T19:00:52.141Z,6.55
2022-11-03T19:03:22.401Z,8.60
2022-11-03T19:05:52.019Z,6.95
2022-11-03T19:08:22.733Z,5.97
2022-11-03T19:10:52.326Z,5.63
2022-11-03T19:13:28.598Z,6.22
2022-11-03T19:15:57.601Z,6.32
2022-11-03T19:18:32.263Z,7.47
2022-11-03T19:20:59.769Z,7.50
2022-11-03T19:23:27.764Z,8.20
2022-11-03T19:25:59.265Z,8.10
2022-11-03T19:30:57.988Z,8.98
2022-11-03T19:33:29.562Z,9.15
2022-11-03T19:35:58.365Z,10.73
2022-11-03T19:38:26.421Z,10.98
2022-11-03T19:41:12.761Z,10.02
2022-11-03T19:43:40.318Z,9.10
2022-11-03T19:46:15.430Z,9.00
2022-11-03T19:48:43.485Z,9.02
2022-11-03T19:51:13.088Z,8.57
2022-11-03T19:53:45.958Z,7.78
2022-11-03T19:56:18.429Z,8.93
2022-11-03T19:58:46.274Z,8.93
2022-11-03T20:01:14.115Z,9.15
2022-11-03T20:03:41.881Z,8.75
2022-11-03T20:06:11.223Z,8.68
2022-11-03T20:08:40.712Z,11.68
2022-11-03T20:11:08.791Z,9.77
2022-11-03T20:13:46.517Z,8.82
2022-11-03T20:16:15.506Z,8.75
2022-11-03T20:18:43.939Z,9.02
2022-11-03T20:21:22.447Z,8.88
2022-11-03T20:23:51.001Z,10.15
2022-11-03T20:26:23.432Z,9.50
2022-11-03T20:28:53.138Z,12.15
2022-11-03T20:31:20.571Z,10.77
2022-11-03T20:33:48.298Z,13.07
2022-11-03T20:36:17.629Z,12.63
2022-11-03T20:38:53.289Z,12.02
2022-11-03T20:41:20.909Z,12.38
2022-11-03T20:43:49.687Z,13.23
2022-11-03T20:46:21.545Z,13.93
2022-11-03T20:48:49.524Z,12.13
2022-11-03T20:51:19.731Z,11.48
2022-11-03T20:53:47.933Z,11.85
2022-11-03T20:56:19.648Z,12.65
2022-11-03T20:58:48.022Z,11.73
2022-11-03T21:01:17.867Z,12.38
2022-11-03T21:03:58.650Z,15.38
2022-11-03T21:08:55.474Z,12.65
2022-11-03T21:11:27.919Z,12.25
2022-11-03T21:13:56.315Z,11.35
2022-11-03T21:16:43.658Z,10.68
2022-11-03T21:19:34.072Z,10.90
2022-11-03T21:22:01.790Z,10.13
2022-11-03T21:24:29.740Z,13.35
2022-11-03T21:26:57.561Z,16.48
2022-11-03T21:29:46.006Z,15.70
2022-11-03T21:32:17.299Z,13.88
2022-11-03T21:34:45.207Z,13.40
2022-11-03T21:37:16.212Z,11.20
2022-11-03T21:39:44.757Z,14.68
2022-11-03T21:42:32.077Z,11.05
2022-11-03T21:44:59.949Z,11.10
2022-11-03T21:47:28.776Z,12.18
2022-11-03T21:49:56.795Z,10.77
2022-11-03T21:52:33.489Z,12.73
2022-11-03T21:55:02.118Z,11.80
2022-11-03T21:57:31.742Z,13.75
2022-11-03T22:00:00.259Z,14.97
2022-11-03T22:02:30.041Z,13.82
2022-11-03T22:04:58.088Z,14.65
2022-11-03T22:07:26.267Z,14.10
2022-11-03T22:09:53.711Z,17.38
2022-11-03T22:12:21.596Z,15.43
2022-11-03T22:15:07.552Z,15.02
2022-11-03T22:17:35.576Z,15.25
2022-11-03T22:20:21.983Z,14.80
2022-11-03T22:23:08.604Z,14.52
2022-11-03T22:25:54.904Z,13.52
2022-11-03T22:28:22.749Z,13.32
2022-11-03T22:31:09.046Z,14.23
2022-11-03T22:33:56.648Z,12.13
2022-11-03T22:36:24.361Z,13.23
2022-11-03T22:39:27.406Z,12.88
2022-11-03T22:42:13.692Z,12.90
2022-11-03T22:45:00.497Z,13.73
2022-11-03T22:47:27.941Z,13.15
2022-11-03T22:49:55.864Z,12.52
2022-11-03T22:52:23.645Z,13.27
2022-11-03T22:54:51.534Z,12.75
2022-11-03T22:57:19.382Z,13.35
2022-11-03T22:59:47.488Z,12.95
2022-11-03T23:02:15.524Z,12.95
2022-11-03T23:04:43.525Z,11.70
2022-11-03T23:07:11.405Z,12.45
2022-11-03T23:09:38.868Z,13.10
2022-11-03T23:12:06.831Z,12.20
2022-11-03T23:14:52.899Z,12.90
2022-11-03T23:17:40.781Z,13.13
2022-11-03T23:20:27.892Z,14.63
2022-11-03T23:22:55.773Z,13.32
2022-11-03T23:25:23.665Z,13.43
2022-11-03T23:27:52.959Z,13.77
2022-11-03T23:30:20.576Z,12.82
2022-11-03T23:32:48.063Z,11.57
2022-11-03T23:35:15.849Z,11.48
2022-11-03T23:37:43.808Z,11.65
2022-11-03T23:40:14.843Z,11.68
2022-11-03T23:42:45.268Z,11.55
2022-11-03T23:45:31.468Z,11.63
2022-11-03T23:48:17.899Z,10.48
2022-11-03T23:50:45.721Z,10.63
2022-11-03T23:53:13.499Z,11.13
2022-11-03T23:55:59.997Z,8.85
2022-11-03T23:58:28.369Z,8.75
